createdAt,value
2019-02-06T00:01:31.683Z,83.73
2019-02-06T00:04:02.596Z,83.97
2019-02-06T00:06:34.861Z,84.21
2019-02-06T00:09:14.004Z,84.34
2019-02-06T00:11:44.647Z,84.40
2019-02-06T00:14:15.321Z,84.32
2019-02-06T00:16:45.889Z,84.32
2019-02-06T00:19:16.483Z,84.34
2019-02-06T00:21:47.573Z,84.22
2019-02-06T00:24:18.219Z,84.13
2019-02-06T00:26:49.000Z,84.10
2019-02-06T00:29:19.626Z,84.16
2019-02-06T00:31:50.163Z,84.18
2019-02-06T00:34:21.699Z,84.29
2019-02-06T00:36:53.091Z,84.12
2019-02-06T00:39:23.754Z,84.15
2019-02-06T00:41:54.238Z,84.20
2019-02-06T00:44:24.861Z,84.17
2019-02-06T00:46:55.798Z,84.21
2019-02-06T00:49:26.810Z,84.10
2019-02-06T00:51:57.403Z,84.38
2019-02-06T00:54:27.744Z,84.40
2019-02-06T00:56:59.675Z,84.61
2019-02-06T00:59:30.556Z,84.66
2019-02-06T01:02:02.455Z,84.69
2019-02-06T01:04:33.118Z,84.56
2019-02-06T01:07:03.885Z,84.66
2019-02-06T01:09:35.594Z,84.64
2019-02-06T01:12:06.222Z,84.82
2019-02-06T01:14:39.427Z,85.15
2019-02-06T01:17:10.086Z,85.58
2019-02-06T01:19:40.881Z,85.55
2019-02-06T01:22:11.507Z,85.57
2019-02-06T01:24:42.427Z,85.66
2019-02-06T01:27:13.396Z,85.63
2019-02-06T01:29:43.897Z,85.74
2019-02-06T01:32:16.447Z,85.91
2019-02-06T01:34:46.994Z,86.12
2019-02-06T01:37:17.596Z,85.97
2019-02-06T01:39:48.303Z,86.09
2019-02-06T01:42:18.879Z,86.45
2019-02-06T01:44:49.776Z,86.40
2019-02-06T01:47:20.246Z,86.42
2019-02-06T01:49:50.880Z,86.52
2019-02-06T01:52:21.477Z,86.45
2019-02-06T01:54:54.475Z,86.42
2019-02-06T01:57:25.593Z,86.55
2019-02-06T01:59:56.175Z,86.55
2019-02-06T02:02:27.128Z,86.47
2019-02-06T02:04:57.592Z,86.46
2019-02-06T02:07:28.246Z,86.94
2019-02-06T02:09:58.831Z,86.74
2019-02-06T02:12:30.853Z,86.73
2019-02-06T02:15:03.739Z,86.60
2019-02-06T02:17:35.233Z,86.37
2019-02-06T02:20:08.822Z,86.07
2019-02-06T02:22:39.344Z,86.28
2019-02-06T02:25:09.928Z,86.05
2019-02-06T02:27:40.252Z,85.86
2019-02-06T02:30:13.523Z,85.41
2019-02-06T02:32:44.590Z,85.69
2019-02-06T02:35:15.322Z,85.71
2019-02-06T02:37:45.758Z,85.43
2019-02-06T02:40:16.541Z,85.44
2019-02-06T02:42:47.011Z,85.55
2019-02-06T02:45:18.895Z,85.63
2019-02-06T02:47:50.926Z,85.50
2019-02-06T02:50:21.410Z,85.42
2019-02-06T02:52:51.931Z,85.41
2019-02-06T02:55:22.689Z,85.34
2019-02-06T02:57:54.593Z,85.78
2019-02-06T03:00:31.516Z,85.54
2019-02-06T03:03:14.473Z,85.55
2019-02-06T03:05:44.928Z,85.56
2019-02-06T03:08:15.400Z,85.50
2019-02-06T03:10:47.193Z,85.35
2019-02-06T03:13:19.243Z,85.29
2019-02-06T03:15:49.658Z,85.15
2019-02-06T03:18:20.579Z,85.36
2019-02-06T03:20:51.064Z,85.60
2019-02-06T03:23:21.812Z,85.76
2019-02-06T03:25:52.176Z,85.87
2019-02-06T03:28:22.780Z,85.84
2019-02-06T03:30:53.492Z,86.10
2019-02-06T03:33:23.873Z,86.12
2019-02-06T03:35:54.476Z,86.22
2019-02-06T03:38:25.300Z,86.19
2019-02-06T03:40:55.732Z,86.28
2019-02-06T03:43:26.063Z,86.28
2019-02-06T03:45:56.774Z,86.42
2019-02-06T03:48:27.214Z,86.59
2019-02-06T03:50:57.598Z,86.29
2019-02-06T03:53:28.249Z,86.18
2019-02-06T03:55:58.945Z,86.10
2019-02-06T03:58:32.431Z,85.83
2019-02-06T04:01:03.542Z,85.95
2019-02-06T04:03:35.006Z,86.34
2019-02-06T04:06:06.622Z,86.68
2019-02-06T04:08:37.200Z,86.49
2019-02-06T04:11:09.600Z,86.55
2019-02-06T04:13:40.436Z,86.43
2019-02-06T04:16:12.390Z,86.71
2019-02-06T04:18:43.410Z,86.84
2019-02-06T04:21:14.124Z,86.77
2019-02-06T04:23:44.812Z,86.78
2019-02-06T04:26:16.427Z,86.58
2019-02-06T04:28:46.823Z,86.53
2019-02-06T04:31:17.709Z,86.22
2019-02-06T04:33:48.059Z,86.22
2019-02-06T04:36:19.162Z,86.32
2019-02-06T04:38:49.705Z,86.25
2019-02-06T04:41:21.666Z,86.04
2019-02-06T04:43:52.113Z,85.84
2019-02-06T04:46:22.462Z,85.84
2019-02-06T04:48:53.612Z,85.90
2019-02-06T04:51:23.971Z,85.74
2019-02-06T04:53:54.615Z,85.85
2019-02-06T04:56:25.130Z,86.10
2019-02-06T04:58:55.892Z,85.99
2019-02-06T05:01:28.394Z,86.00
2019-02-06T05:03:58.826Z,85.66
2019-02-06T05:06:29.897Z,85.53
2019-02-06T05:09:00.666Z,85.92
2019-02-06T05:11:39.096Z,85.91
2019-02-06T05:14:10.577Z,85.94
2019-02-06T05:16:42.011Z,85.90
2019-02-06T05:19:13.362Z,85.97
2019-02-06T05:21:43.704Z,85.97
2019-02-06T05:24:14.436Z,86.00
2019-02-06T05:26:45.973Z,85.83
2019-02-06T05:29:16.659Z,85.95
2019-02-06T05:31:47.353Z,85.83
2019-02-06T05:34:17.978Z,85.67
2019-02-06T05:36:50.953Z,85.67
2019-02-06T05:39:20.503Z,85.54
2019-02-06T05:41:51.145Z,85.45
2019-02-06T05:44:23.106Z,85.49
2019-02-06T05:46:53.751Z,85.48
2019-02-06T05:49:26.316Z,85.39
2019-02-06T05:51:56.812Z,85.53
2019-02-06T05:54:27.499Z,85.54
2019-02-06T05:56:58.055Z,85.33
2019-02-06T05:59:28.710Z,85.21
2019-02-06T06:01:59.419Z,85.07
2019-02-06T06:04:30.082Z,84.96
2019-02-06T06:07:00.992Z,84.83
2019-02-06T06:09:33.303Z,84.67
2019-02-06T06:12:03.847Z,84.64
2019-02-06T06:14:34.337Z,84.55
2019-02-06T06:17:07.501Z,84.33
2019-02-06T06:19:38.348Z,84.34
2019-02-06T06:22:09.002Z,84.18
2019-02-06T06:24:39.634Z,84.10
2019-02-06T06:27:10.552Z,83.87
2019-02-06T06:29:40.995Z,83.80
2019-02-06T06:32:11.511Z,83.70
2019-02-06T06:34:42.251Z,83.73
2019-02-06T06:37:12.603Z,83.80
2019-02-06T06:39:42.998Z,83.96
2019-02-06T06:42:13.736Z,83.91
2019-02-06T06:44:44.249Z,83.80
2019-02-06T06:47:14.626Z,83.59
2019-02-06T06:49:45.244Z,83.58
2019-02-06T06:52:15.731Z,83.71
2019-02-06T06:54:46.589Z,83.96
2019-02-06T06:57:17.201Z,84.05
2019-02-06T06:59:47.656Z,84.15
2019-02-06T07:02:18.388Z,84.39
2019-02-06T07:04:48.853Z,84.59
2019-02-06T07:07:19.316Z,84.84
2019-02-06T07:09:50.174Z,85.34
2019-02-06T07:12:20.584Z,85.31
2019-02-06T07:14:51.053Z,85.82
2019-02-06T07:17:21.804Z,85.82
2019-02-06T07:19:52.397Z,85.51
2019-02-06T07:22:22.912Z,85.45
2019-02-06T07:24:53.614Z,85.29
2019-02-06T07:27:23.990Z,86.00
2019-02-06T07:29:54.813Z,86.08
2019-02-06T07:32:25.170Z,86.60
2019-02-06T07:34:55.949Z,87.05
2019-02-06T07:37:26.528Z,87.08
2019-02-06T07:39:56.927Z,87.09
2019-02-06T07:42:27.557Z,86.86
2019-02-06T07:44:58.290Z,86.62
2019-02-06T07:47:28.787Z,86.25
2019-02-06T07:49:59.308Z,86.08
2019-02-06T07:52:29.656Z,86.57
2019-02-06T07:55:00.064Z,86.69
2019-02-06T07:57:30.517Z,86.61
2019-02-06T08:00:00.916Z,86.55
2019-02-06T08:02:31.363Z,86.10
2019-02-06T08:05:02.046Z,85.84
2019-02-06T08:07:32.471Z,85.67
2019-02-06T08:10:02.949Z,85.29
2019-02-06T08:12:34.026Z,85.12
2019-02-06T08:15:05.158Z,84.51
2019-02-06T08:17:36.172Z,84.26
2019-02-06T08:20:07.746Z,83.72
2019-02-06T08:22:38.187Z,83.25
2019-02-06T08:25:08.967Z,82.85
2019-02-06T08:27:39.423Z,83.34
2019-02-06T08:30:17.323Z,83.56
2019-02-06T08:32:47.855Z,83.61
2019-02-06T08:35:18.262Z,83.40
2019-02-06T08:37:50.150Z,83.40
2019-02-06T08:40:20.982Z,83.21
2019-02-06T08:42:53.311Z,82.85
2019-02-06T08:45:25.003Z,82.41
2019-02-06T08:47:55.549Z,82.16
2019-02-06T08:50:26.663Z,81.68
2019-02-06T08:52:57.245Z,81.29
2019-02-06T08:55:29.212Z,80.81
2019-02-06T08:57:59.989Z,80.55
2019-02-06T09:00:33.306Z,80.68
2019-02-06T09:03:04.715Z,80.53
2019-02-06T09:05:35.347Z,79.65
2019-02-06T09:08:06.355Z,79.63
2019-02-06T09:10:37.197Z,79.31
2019-02-06T09:13:08.189Z,79.06
2019-02-06T09:15:40.680Z,78.60
2019-02-06T09:18:13.070Z,78.60
2019-02-06T09:20:44.228Z,78.11
2019-02-06T09:23:16.050Z,77.53
2019-02-06T09:25:46.859Z,76.91
2019-02-06T09:28:17.344Z,76.25
2019-02-06T09:30:48.216Z,75.86
2019-02-06T09:33:19.068Z,75.87
2019-02-06T09:35:49.589Z,75.01
2019-02-06T09:38:20.191Z,75.09
2019-02-06T09:40:50.980Z,74.34
2019-02-06T09:43:21.458Z,74.11
2019-02-06T09:45:52.392Z,74.08
2019-02-06T09:48:23.973Z,73.47
2019-02-06T09:50:55.105Z,73.48
2019-02-06T09:53:25.767Z,73.58
2019-02-06T09:55:56.844Z,73.87
2019-02-06T09:58:29.520Z,73.55
2019-02-06T10:01:00.230Z,74.29
2019-02-06T10:03:32.750Z,73.25
2019-02-06T10:06:03.330Z,74.00
2019-02-06T10:08:35.234Z,73.31
2019-02-06T10:11:06.751Z,73.21
2019-02-06T10:13:37.593Z,73.10
2019-02-06T10:16:10.051Z,73.67
2019-02-06T10:18:40.805Z,73.73
2019-02-06T10:21:11.498Z,73.71
2019-02-06T10:23:41.996Z,73.66
2019-02-06T10:26:13.430Z,73.59
2019-02-06T10:28:44.431Z,74.57
2019-02-06T10:31:15.272Z,73.89
2019-02-06T10:33:46.043Z,73.80
2019-02-06T10:36:16.771Z,73.97
2019-02-06T10:38:47.517Z,73.59
2019-02-06T10:41:19.527Z,73.58
2019-02-06T10:43:51.518Z,73.28
2019-02-06T10:46:23.560Z,72.85
2019-02-06T10:48:54.137Z,73.53
2019-02-06T10:51:25.116Z,73.72
2019-02-06T10:53:55.693Z,72.75
2019-02-06T10:56:26.717Z,73.28
2019-02-06T10:58:57.571Z,73.10
2019-02-06T11:01:28.616Z,72.69
2019-02-06T11:04:00.468Z,72.17
2019-02-06T11:06:30.916Z,71.77
2019-02-06T11:09:04.166Z,71.44
2019-02-06T11:11:35.200Z,71.66
2019-02-06T11:14:05.949Z,71.86
2019-02-06T11:16:37.619Z,72.65
2019-02-06T11:19:09.415Z,72.47
2019-02-06T11:21:41.257Z,72.19
2019-02-06T11:24:11.594Z,71.88
2019-02-06T11:26:42.792Z,71.72
2019-02-06T11:29:13.322Z,71.38
2019-02-06T11:31:44.349Z,71.05
2019-02-06T11:34:15.099Z,70.81
2019-02-06T11:36:45.639Z,70.62
2019-02-06T11:39:24.350Z,70.45
2019-02-06T11:41:55.039Z,69.47
2019-02-06T11:44:25.516Z,69.76
2019-02-06T11:46:56.257Z,69.26
2019-02-06T11:49:32.234Z,69.62
2019-02-06T11:52:02.787Z,68.69
2019-02-06T11:54:34.362Z,68.66
2019-02-06T11:57:07.115Z,68.75
2019-02-06T11:59:39.065Z,68.78
2019-02-06T12:02:09.584Z,67.67
2019-02-06T12:04:40.541Z,67.33
2019-02-06T12:07:11.180Z,66.62
2019-02-06T12:09:41.937Z,67.14
2019-02-06T12:12:12.998Z,67.62
2019-02-06T12:14:43.709Z,67.47
2019-02-06T12:17:14.191Z,66.43
2019-02-06T12:19:46.461Z,65.20
2019-02-06T12:22:19.508Z,64.55
2019-02-06T12:24:51.726Z,64.60
2019-02-06T12:27:22.112Z,63.76
2019-02-06T12:29:53.108Z,62.51
2019-02-06T12:32:23.458Z,61.70
2019-02-06T12:34:54.020Z,61.34
2019-02-06T12:37:24.835Z,58.37
2019-02-06T12:39:55.981Z,58.66
2019-02-06T12:42:26.754Z,56.67
2019-02-06T12:44:59.090Z,51.99
2019-02-06T12:47:29.872Z,54.19
2019-02-06T12:50:00.412Z,51.34
2019-02-06T12:52:31.186Z,51.49
2019-02-06T12:55:03.067Z,50.23
2019-02-06T12:57:37.129Z,50.25
2019-02-06T13:00:10.566Z,52.47
2019-02-06T13:02:43.375Z,52.58
2019-02-06T13:05:14.418Z,53.25
2019-02-06T13:07:45.097Z,51.93
2019-02-06T13:10:16.414Z,52.58
2019-02-06T13:12:49.045Z,52.17
2019-02-06T13:15:19.492Z,52.04
2019-02-06T13:17:50.435Z,51.58
2019-02-06T13:20:24.305Z,51.02
2019-02-06T13:22:55.383Z,50.17
2019-02-06T13:25:25.948Z,51.79
2019-02-06T13:27:56.416Z,50.66
2019-02-06T13:30:29.276Z,51.86
2019-02-06T13:33:00.175Z,53.42
2019-02-06T13:35:32.449Z,52.38
2019-02-06T13:38:03.414Z,51.71
2019-02-06T13:40:45.240Z,51.42
2019-02-06T13:43:08.882Z,51.00
2019-02-06T13:45:43.148Z,53.25
2019-02-06T13:48:14.402Z,51.81
2019-02-06T13:50:45.229Z,52.04
2019-02-06T13:53:15.922Z,52.70
2019-02-06T13:55:46.571Z,52.81
2019-02-06T13:58:20.409Z,53.44
2019-02-06T14:00:52.158Z,52.37
2019-02-06T14:03:21.338Z,50.71
2019-02-06T14:05:52.077Z,49.00
2019-02-06T14:08:22.823Z,47.43
2019-02-06T14:11:00.117Z,47.56
2019-02-06T14:13:25.789Z,47.69
2019-02-06T14:15:56.485Z,48.95
2019-02-06T14:18:27.191Z,50.43
2019-02-06T14:20:57.718Z,49.14
2019-02-06T14:23:50.471Z,51.69
2019-02-06T14:26:48.042Z,51.42
2019-02-06T14:30:08.968Z,50.45
2019-02-06T14:33:45.314Z,51.22
2019-02-06T14:36:51.509Z,51.12
2019-02-06T14:39:48.853Z,51.94
2019-02-06T14:42:48.566Z,51.89
2019-02-06T14:45:59.232Z,52.90
2019-02-06T14:49:09.755Z,52.89
2019-02-06T14:52:16.577Z,50.63
2019-02-06T14:55:30.125Z,49.55
2019-02-06T14:58:39.120Z,49.81
2019-02-06T15:01:34.796Z,49.51
2019-02-06T15:04:44.310Z,49.76
2019-02-06T15:08:08.152Z,49.98
2019-02-06T15:10:59.729Z,50.04
2019-02-06T15:14:11.721Z,49.64
2019-02-06T15:17:19.464Z,49.00
2019-02-06T15:20:22.673Z,49.87
2019-02-06T15:23:38.070Z,50.77
2019-02-06T15:26:49.517Z,50.82
2019-02-06T15:29:33.348Z,51.68
2019-02-06T15:32:37.237Z,52.75
2019-02-06T15:36:01.969Z,53.61
2019-02-06T15:39:01.608Z,54.10
2019-02-06T15:42:15.126Z,54.39
2019-02-06T15:45:15.222Z,54.61
2019-02-06T15:47:54.631Z,55.00
2019-02-06T15:50:56.797Z,55.46
2019-02-06T15:54:02.836Z,55.75
2019-02-06T15:57:01.018Z,56.13
2019-02-06T16:00:15.104Z,56.34
2019-02-06T16:03:13.799Z,56.64
2019-02-06T16:06:32.862Z,57.12
2019-02-06T16:09:56.567Z,57.18
2019-02-06T16:12:56.047Z,57.37
2019-02-06T16:15:47.321Z,57.81
2019-02-06T16:18:49.158Z,58.37
2019-02-06T16:21:53.823Z,59.01
2019-02-06T16:24:53.185Z,59.08
2019-02-06T16:27:36.454Z,59.39
2019-02-06T16:30:58.438Z,59.29
2019-02-06T16:34:12.397Z,59.61
2019-02-06T16:36:52.894Z,59.98
2019-02-06T16:40:07.652Z,60.24
2019-02-06T16:43:02.620Z,60.15
2019-02-06T16:46:19.830Z,60.31
2019-02-06T16:49:30.912Z,60.17
2019-02-06T16:52:12.181Z,60.61
2019-02-06T16:55:21.901Z,60.28
2019-02-06T16:58:29.433Z,60.55
2019-02-06T17:01:40.092Z,60.41
2019-02-06T17:04:41.752Z,60.39
2019-02-06T17:07:36.191Z,60.46
2019-02-06T17:10:41.019Z,60.54
2019-02-06T17:13:46.585Z,60.69
2019-02-06T17:16:34.791Z,60.77
2019-02-06T17:19:53.306Z,60.96
2019-02-06T17:22:41.112Z,60.89
2019-02-06T17:25:49.218Z,61.09
2019-02-06T17:28:47.779Z,61.40
2019-02-06T17:31:56.786Z,62.26
2019-02-06T17:35:08.859Z,63.15
2019-02-06T17:38:14.534Z,63.36
2019-02-06T17:41:27.868Z,63.75
2019-02-06T17:44:31.138Z,63.86
2019-02-06T17:47:51.679Z,64.02
2019-02-06T17:50:48.858Z,64.14
2019-02-06T17:53:34.598Z,64.99
2019-02-06T17:56:06.413Z,65.28
2019-02-06T17:58:40.466Z,65.43
2019-02-06T18:01:22.062Z,66.20
2019-02-06T18:03:56.284Z,66.63
2019-02-06T18:06:39.682Z,66.39
2019-02-06T18:09:29.535Z,66.34
2019-02-06T18:12:28.862Z,66.68
2019-02-06T18:15:27.341Z,66.93
2019-02-06T18:18:25.705Z,67.37
2019-02-06T18:21:24.618Z,67.38
2019-02-06T18:24:20.475Z,67.46
2019-02-06T18:27:17.190Z,67.66
2019-02-06T18:30:02.485Z,67.97
2019-02-06T18:32:46.063Z,68.37
2019-02-06T18:35:17.655Z,69.73
2019-02-06T18:37:50.331Z,69.62
2019-02-06T18:40:22.967Z,69.63
2019-02-06T18:42:53.816Z,69.84
2019-02-06T18:45:27.802Z,70.25
2019-02-06T18:48:03.001Z,70.44
2019-02-06T18:50:36.874Z,71.25
2019-02-06T18:53:08.439Z,71.54
2019-02-06T18:55:39.287Z,71.38
2019-02-06T18:58:10.840Z,71.66
2019-02-06T19:00:42.114Z,71.89
2019-02-06T19:03:16.818Z,72.05
2019-02-06T19:05:48.129Z,72.05
2019-02-06T19:08:19.107Z,72.01
2019-02-06T19:10:50.821Z,72.05
2019-02-06T19:13:21.633Z,72.14
2019-02-06T19:15:56.489Z,72.40
2019-02-06T19:18:26.390Z,72.59
2019-02-06T19:20:57.495Z,72.74
2019-02-06T19:23:50.184Z,73.35
2019-02-06T19:26:20.649Z,73.92
2019-02-06T19:28:51.118Z,73.87
2019-02-06T19:31:21.721Z,74.20
2019-02-06T19:33:53.094Z,74.26
2019-02-06T19:36:24.654Z,74.19
2019-02-06T19:38:55.300Z,74.60
2019-02-06T19:41:25.745Z,74.56
2019-02-06T19:43:56.315Z,74.69
2019-02-06T19:46:26.784Z,74.80
2019-02-06T19:48:58.016Z,74.78
2019-02-06T19:51:28.813Z,75.02
2019-02-06T19:53:59.268Z,74.96
2019-02-06T19:56:30.223Z,74.91
2019-02-06T19:59:01.141Z,75.03
2019-02-06T20:01:31.794Z,75.21
2019-02-06T20:04:02.448Z,75.42
2019-02-06T20:06:34.503Z,75.56
2019-02-06T20:09:13.167Z,75.73
2019-02-06T20:11:43.683Z,75.73
2019-02-06T20:14:14.244Z,75.75
2019-02-06T20:16:44.772Z,75.64
2019-02-06T20:19:15.139Z,75.61
2019-02-06T20:21:46.067Z,75.81
2019-02-06T20:24:16.598Z,75.76
2019-02-06T20:26:47.363Z,75.77
2019-02-06T20:29:18.074Z,75.92
2019-02-06T20:31:49.119Z,76.15
2019-02-06T20:34:19.795Z,76.40
2019-02-06T20:36:50.657Z,76.57
2019-02-06T20:39:21.127Z,76.91
2019-02-06T20:41:51.625Z,76.97
2019-02-06T20:44:22.114Z,77.18
2019-02-06T20:46:55.751Z,77.20
2019-02-06T20:49:25.120Z,77.26
2019-02-06T20:51:56.093Z,77.51
2019-02-06T20:54:26.716Z,77.79
2019-02-06T20:56:58.367Z,77.79
2019-02-06T20:59:28.926Z,77.93
2019-02-06T21:01:59.736Z,77.94
2019-02-06T21:04:30.310Z,78.02
2019-02-06T21:07:00.779Z,78.29
2019-02-06T21:09:31.184Z,78.44
2019-02-06T21:12:01.909Z,78.33
2019-02-06T21:14:32.647Z,78.67
2019-02-06T21:17:03.213Z,79.06
2019-02-06T21:19:33.881Z,79.29
2019-02-06T21:22:04.435Z,79.53
2019-02-06T21:24:34.945Z,79.81
2019-02-06T21:27:06.738Z,80.28
2019-02-06T21:29:37.530Z,80.12
2019-02-06T21:32:09.494Z,80.15
2019-02-06T21:34:40.145Z,80.23
2019-02-06T21:37:10.531Z,80.17
2019-02-06T21:39:40.981Z,80.12
2019-02-06T21:42:11.426Z,79.99
2019-02-06T21:44:41.996Z,80.00
2019-02-06T21:47:12.597Z,79.88
2019-02-06T21:49:43.215Z,80.02
2019-02-06T21:52:14.095Z,79.90
2019-02-06T21:54:45.867Z,79.96
2019-02-06T21:57:16.513Z,80.24
2019-02-06T21:59:48.457Z,80.89
2019-02-06T22:02:18.856Z,80.92
2019-02-06T22:04:49.220Z,81.27
2019-02-06T22:07:19.814Z,81.45
2019-02-06T22:09:50.210Z,81.31
2019-02-06T22:12:21.163Z,81.23
2019-02-06T22:14:51.769Z,81.06
2019-02-06T22:17:22.207Z,80.89
2019-02-06T22:19:52.690Z,80.76
2019-02-06T22:22:23.491Z,80.65
2019-02-06T22:24:54.354Z,80.59
2019-02-06T22:27:25.531Z,80.59
2019-02-06T22:29:58.519Z,81.34
2019-02-06T22:32:29.135Z,81.37
2019-02-06T22:35:00.443Z,81.15
2019-02-06T22:37:31.207Z,81.06
2019-02-06T22:40:02.535Z,81.48
2019-02-06T22:42:33.252Z,81.41
2019-02-06T22:45:04.305Z,81.47
2019-02-06T22:47:34.926Z,81.62
2019-02-06T22:50:09.051Z,81.53
2019-02-06T22:52:40.617Z,81.54
2019-02-06T22:55:12.412Z,82.10
2019-02-06T22:57:43.906Z,82.07
2019-02-06T23:00:46.916Z,82.04
2019-02-06T23:03:24.674Z,82.01
2019-02-06T23:05:55.202Z,82.29
2019-02-06T23:08:28.012Z,82.40
2019-02-06T23:10:58.967Z,82.33
2019-02-06T23:13:29.604Z,82.33
2019-02-06T23:16:00.041Z,82.48
2019-02-06T23:18:30.402Z,82.81
2019-02-06T23:21:01.952Z,82.70
2019-02-06T23:23:32.314Z,82.69
2019-02-06T23:26:03.042Z,82.61
2019-02-06T23:28:34.154Z,82.60
2019-02-06T23:31:05.647Z,82.62
2019-02-06T23:33:38.077Z,82.70
2019-02-06T23:36:10.083Z,82.67
2019-02-06T23:38:40.944Z,82.61
2019-02-06T23:41:11.468Z,82.57
2019-02-06T23:43:43.308Z,82.67
2019-02-06T23:46:13.714Z,82.65
2019-02-06T23:48:44.470Z,82.56
2019-02-06T23:51:15.252Z,82.46
2019-02-06T23:53:46.215Z,82.63
2019-02-06T23:56:16.891Z,82.99
2019-02-06T23:58:47.610Z,82.76
